sensor_id;sensor_type;location;lat;lon;timestamp;P1;durP1;ratioP1;P2;durP2;ratioP2
10687;SDS011;5392;42.688;23.298;2023-03-03T00:01:39;1.23;;;1.10;;
10687;SDS011;5392;42.688;23.298;2023-03-03T00:04:07;0.75;;;0.75;;
10687;SDS011;5392;42.688;23.298;2023-03-03T00:06:34;0.43;;;0.43;;
10687;SDS011;5392;42.688;23.298;2023-03-03T00:09:01;0.43;;;0.43;;
10687;SDS011;5392;42.688;23.298;2023-03-03T00:11:27;0.60;;;0.60;;
10687;SDS011;5392;42.688;23.298;2023-03-03T00:13:54;0.80;;;0.80;;
10687;SDS011;5392;42.688;23.298;2023-03-03T00:18:57;1.45;;;1.35;;
10687;SDS011;5392;42.688;23.298;2023-03-03T00:21:30;2.05;;;0.95;;
10687;SDS011;5392;42.688;23.298;2023-03-03T00:26:44;1.20;;;1.10;;
10687;SDS011;5392;42.688;23.298;2023-03-03T00:29:56;1.58;;;1.48;;
10687;SDS011;5392;42.688;23.298;2023-03-03T00:34:59;2.42;;;2.22;;
10687;SDS011;5392;42.688;23.298;2023-03-03T00:37:43;2.20;;;2.10;;
10687;SDS011;5392;42.688;23.298;2023-03-03T00:42:44;2.28;;;2.17;;
10687;SDS011;5392;42.688;23.298;2023-03-03T00:45:17;1.15;;;1.10;;
10687;SDS011;5392;42.688;23.298;2023-03-03T00:47:46;1.77;;;1.60;;
10687;SDS011;5392;42.688;23.298;2023-03-03T00:53:11;1.55;;;1.45;;
10687;SDS011;5392;42.688;23.298;2023-03-03T00:55:42;3.17;;;2.97;;
10687;SDS011;5392;42.688;23.298;2023-03-03T00:58:09;3.67;;;3.33;;
10687;SDS011;5392;42.688;23.298;2023-03-03T01:00:36;3.00;;;2.80;;
10687;SDS011;5392;42.688;23.298;2023-03-03T01:03:04;2.75;;;2.53;;
10687;SDS011;5392;42.688;23.298;2023-03-03T01:05:33;2.72;;;2.53;;
10687;SDS011;5392;42.688;23.298;2023-03-03T01:08:00;2.28;;;2.17;;
10687;SDS011;5392;42.688;23.298;2023-03-03T01:10:27;3.55;;;3.30;;
10687;SDS011;5392;42.688;23.298;2023-03-03T01:12:57;3.15;;;2.95;;
10687;SDS011;5392;42.688;23.298;2023-03-03T01:15:24;2.97;;;2.88;;
10687;SDS011;5392;42.688;23.298;2023-03-03T01:17:50;3.35;;;3.00;;
10687;SDS011;5392;42.688;23.298;2023-03-03T01:20:17;3.33;;;3.13;;
10687;SDS011;5392;42.688;23.298;2023-03-03T01:22:44;3.10;;;2.90;;
10687;SDS011;5392;42.688;23.298;2023-03-03T01:25:10;2.38;;;2.22;;
10687;SDS011;5392;42.688;23.298;2023-03-03T01:27:37;2.80;;;2.70;;
10687;SDS011;5392;42.688;23.298;2023-03-03T01:30:05;3.50;;;3.30;;
10687;SDS011;5392;42.688;23.298;2023-03-03T01:32:33;3.72;;;3.45;;
10687;SDS011;5392;42.688;23.298;2023-03-03T01:35:00;3.25;;;2.95;;
10687;SDS011;5392;42.688;23.298;2023-03-03T01:37:27;3.47;;;3.05;;
10687;SDS011;5392;42.688;23.298;2023-03-03T01:39:53;2.88;;;2.78;;
10687;SDS011;5392;42.688;23.298;2023-03-03T01:42:21;3.58;;;3.28;;
10687;SDS011;5392;42.688;23.298;2023-03-03T01:44:48;3.53;;;3.22;;
10687;SDS011;5392;42.688;23.298;2023-03-03T01:47:33;3.63;;;3.33;;
10687;SDS011;5392;42.688;23.298;2023-03-03T01:50:04;3.22;;;3.03;;
10687;SDS011;5392;42.688;23.298;2023-03-03T01:52:38;3.35;;;3.15;;
10687;SDS011;5392;42.688;23.298;2023-03-03T01:55:18;3.10;;;2.90;;
10687;SDS011;5392;42.688;23.298;2023-03-03T01:57:56;3.88;;;3.58;;
10687;SDS011;5392;42.688;23.298;2023-03-03T02:00:26;2.92;;;2.50;;
10687;SDS011;5392;42.688;23.298;2023-03-03T02:02:55;2.45;;;2.25;;
10687;SDS011;5392;42.688;23.298;2023-03-03T02:05:23;3.70;;;3.40;;
10687;SDS011;5392;42.688;23.298;2023-03-03T02:07:50;3.42;;;3.15;;
10687;SDS011;5392;42.688;23.298;2023-03-03T02:10:18;3.50;;;3.30;;
10687;SDS011;5392;42.688;23.298;2023-03-03T02:12:50;2.95;;;2.75;;
10687;SDS011;5392;42.688;23.298;2023-03-03T02:15:22;2.90;;;2.70;;
10687;SDS011;5392;42.688;23.298;2023-03-03T02:17:54;3.05;;;2.85;;
10687;SDS011;5392;42.688;23.298;2023-03-03T02:20:28;1.92;;;1.83;;
10687;SDS011;5392;42.688;23.298;2023-03-03T02:22:59;3.00;;;2.67;;
10687;SDS011;5392;42.688;23.298;2023-03-03T02:28:28;2.53;;;2.33;;
10687;SDS011;5392;42.688;23.298;2023-03-03T02:30:57;2.08;;;1.98;;
10687;SDS011;5392;42.688;23.298;2023-03-03T02:33:25;2.45;;;2.35;;
10687;SDS011;5392;42.688;23.298;2023-03-03T02:35:53;2.15;;;2.05;;
10687;SDS011;5392;42.688;23.298;2023-03-03T02:44:09;2.30;;;2.13;;
10687;SDS011;5392;42.688;23.298;2023-03-03T02:46:39;2.33;;;2.22;;
10687;SDS011;5392;42.688;23.298;2023-03-03T02:49:08;2.58;;;2.38;;
10687;SDS011;5392;42.688;23.298;2023-03-03T02:51:37;2.70;;;2.50;;
10687;SDS011;5392;42.688;23.298;2023-03-03T02:54:05;2.72;;;2.63;;
10687;SDS011;5392;42.688;23.298;2023-03-03T02:56:33;1.85;;;1.83;;
10687;SDS011;5392;42.688;23.298;2023-03-03T02:59:00;2.38;;;2.28;;
10687;SDS011;5392;42.688;23.298;2023-03-03T03:01:27;2.55;;;2.25;;
10687;SDS011;5392;42.688;23.298;2023-03-03T03:03:57;2.75;;;2.65;;
10687;SDS011;5392;42.688;23.298;2023-03-03T03:06:24;2.17;;;1.98;;
10687;SDS011;5392;42.688;23.298;2023-03-03T03:08:50;3.08;;;2.95;;
10687;SDS011;5392;42.688;23.298;2023-03-03T03:11:17;2.90;;;2.70;;
10687;SDS011;5392;42.688;23.298;2023-03-03T03:13:43;3.00;;;2.90;;
10687;SDS011;5392;42.688;23.298;2023-03-03T03:16:10;3.17;;;2.92;;
10687;SDS011;5392;42.688;23.298;2023-03-03T03:18:37;3.78;;;3.47;;
10687;SDS011;5392;42.688;23.298;2023-03-03T03:21:05;3.17;;;2.97;;
10687;SDS011;5392;42.688;23.298;2023-03-03T03:23:35;3.33;;;3.03;;
10687;SDS011;5392;42.688;23.298;2023-03-03T03:26:02;3.67;;;3.47;;
10687;SDS011;5392;42.688;23.298;2023-03-03T03:28:30;3.65;;;3.45;;
10687;SDS011;5392;42.688;23.298;2023-03-03T03:30:56;3.80;;;3.50;;
10687;SDS011;5392;42.688;23.298;2023-03-03T03:33:23;3.65;;;3.47;;
10687;SDS011;5392;42.688;23.298;2023-03-03T03:35:50;4.40;;;4.00;;
10687;SDS011;5392;42.688;23.298;2023-03-03T03:38:17;4.32;;;4.03;;
10687;SDS011;5392;42.688;23.298;2023-03-03T03:40:44;5.40;;;4.90;;
10687;SDS011;5392;42.688;23.298;2023-03-03T03:43:11;5.50;;;5.10;;
10687;SDS011;5392;42.688;23.298;2023-03-03T03:45:37;5.13;;;4.70;;
10687;SDS011;5392;42.688;23.298;2023-03-03T03:48:07;5.82;;;5.18;;
10687;SDS011;5392;42.688;23.298;2023-03-03T03:50:33;5.93;;;5.32;;
10687;SDS011;5392;42.688;23.298;2023-03-03T03:53:00;6.38;;;5.53;;
10687;SDS011;5392;42.688;23.298;2023-03-03T03:55:27;6.28;;;5.75;;
10687;SDS011;5392;42.688;23.298;2023-03-03T03:57:54;6.32;;;5.72;;
10687;SDS011;5392;42.688;23.298;2023-03-03T04:00:22;6.28;;;5.70;;
10687;SDS011;5392;42.688;23.298;2023-03-03T04:02:49;7.47;;;6.00;;
10687;SDS011;5392;42.688;23.298;2023-03-03T04:05:16;7.88;;;7.05;;
10687;SDS011;5392;42.688;23.298;2023-03-03T04:07:43;10.18;;;8.20;;
10687;SDS011;5392;42.688;23.298;2023-03-03T04:10:10;10.15;;;8.13;;
10687;SDS011;5392;42.688;23.298;2023-03-03T04:12:37;10.68;;;8.40;;
10687;SDS011;5392;42.688;23.298;2023-03-03T04:17:32;10.68;;;8.70;;
10687;SDS011;5392;42.688;23.298;2023-03-03T04:19:58;12.63;;;9.25;;
10687;SDS011;5392;42.688;23.298;2023-03-03T04:22:25;12.18;;;8.32;;
10687;SDS011;5392;42.688;23.298;2023-03-03T04:24:51;11.23;;;8.73;;
10687;SDS011;5392;42.688;23.298;2023-03-03T04:27:18;12.00;;;8.95;;
10687;SDS011;5392;42.688;23.298;2023-03-03T04:29:45;9.93;;;8.35;;
10687;SDS011;5392;42.688;23.298;2023-03-03T04:32:11;15.27;;;9.82;;
10687;SDS011;5392;42.688;23.298;2023-03-03T04:34:38;11.02;;;9.13;;
10687;SDS011;5392;42.688;23.298;2023-03-03T04:37:05;10.82;;;9.07;;
10687;SDS011;5392;42.688;23.298;2023-03-03T04:39:32;10.20;;;8.48;;
10687;SDS011;5392;42.688;23.298;2023-03-03T04:41:58;12.13;;;8.10;;
10687;SDS011;5392;42.688;23.298;2023-03-03T04:44:25;10.32;;;8.63;;
10687;SDS011;5392;42.688;23.298;2023-03-03T04:46:52;9.77;;;7.97;;
10687;SDS011;5392;42.688;23.298;2023-03-03T04:49:18;11.02;;;8.05;;
10687;SDS011;5392;42.688;23.298;2023-03-03T04:51:45;11.18;;;8.85;;
10687;SDS011;5392;42.688;23.298;2023-03-03T04:54:12;14.85;;;8.95;;
10687;SDS011;5392;42.688;23.298;2023-03-03T04:56:38;10.15;;;8.90;;
10687;SDS011;5392;42.688;23.298;2023-03-03T04:59:05;10.85;;;7.68;;
10687;SDS011;5392;42.688;23.298;2023-03-03T05:01:32;13.50;;;8.90;;
10687;SDS011;5392;42.688;23.298;2023-03-03T05:03:58;11.63;;;8.70;;
10687;SDS011;5392;42.688;23.298;2023-03-03T05:06:25;12.95;;;9.85;;
10687;SDS011;5392;42.688;23.298;2023-03-03T05:08:52;13.52;;;9.77;;
10687;SDS011;5392;42.688;23.298;2023-03-03T05:11:19;14.73;;;10.07;;
10687;SDS011;5392;42.688;23.298;2023-03-03T05:13:46;14.35;;;9.90;;
10687;SDS011;5392;42.688;23.298;2023-03-03T05:16:12;14.35;;;10.48;;
10687;SDS011;5392;42.688;23.298;2023-03-03T05:18:39;16.52;;;10.63;;
10687;SDS011;5392;42.688;23.298;2023-03-03T05:21:06;12.95;;;9.68;;
10687;SDS011;5392;42.688;23.298;2023-03-03T05:23:33;16.35;;;10.38;;
10687;SDS011;5392;42.688;23.298;2023-03-03T05:26:00;14.00;;;9.40;;
10687;SDS011;5392;42.688;23.298;2023-03-03T05:28:26;13.63;;;9.82;;
10687;SDS011;5392;42.688;23.298;2023-03-03T05:30:53;12.80;;;9.25;;
10687;SDS011;5392;42.688;23.298;2023-03-03T05:33:20;17.00;;;9.40;;
10687;SDS011;5392;42.688;23.298;2023-03-03T05:35:47;13.43;;;11.13;;
10687;SDS011;5392;42.688;23.298;2023-03-03T05:38:18;13.60;;;9.63;;
10687;SDS011;5392;42.688;23.298;2023-03-03T05:40:45;14.93;;;11.52;;
10687;SDS011;5392;42.688;23.298;2023-03-03T05:43:12;12.55;;;8.13;;
10687;SDS011;5392;42.688;23.298;2023-03-03T05:45:39;16.88;;;11.30;;
10687;SDS011;5392;42.688;23.298;2023-03-03T05:48:05;18.67;;;11.18;;
10687;SDS011;5392;42.688;23.298;2023-03-03T05:50:32;17.38;;;11.48;;
10687;SDS011;5392;42.688;23.298;2023-03-03T05:52:59;18.60;;;12.05;;
10687;SDS011;5392;42.688;23.298;2023-03-03T05:55:26;18.60;;;11.73;;
10687;SDS011;5392;42.688;23.298;2023-03-03T05:57:52;18.88;;;12.10;;
10687;SDS011;5392;42.688;23.298;2023-03-03T06:00:19;16.73;;;11.43;;
10687;SDS011;5392;42.688;23.298;2023-03-03T06:02:47;17.20;;;12.15;;
10687;SDS011;5392;42.688;23.298;2023-03-03T06:05:13;19.45;;;12.32;;
10687;SDS011;5392;42.688;23.298;2023-03-03T06:07:40;20.17;;;11.80;;
10687;SDS011;5392;42.688;23.298;2023-03-03T06:10:07;15.05;;;10.27;;
10687;SDS011;5392;42.688;23.298;2023-03-03T06:12:34;16.67;;;11.50;;
10687;SDS011;5392;42.688;23.298;2023-03-03T06:15:01;17.40;;;10.75;;
10687;SDS011;5392;42.688;23.298;2023-03-03T06:17:28;14.63;;;9.77;;
10687;SDS011;5392;42.688;23.298;2023-03-03T06:19:55;13.02;;;9.77;;
10687;SDS011;5392;42.688;23.298;2023-03-03T06:22:21;14.73;;;8.55;;
10687;SDS011;5392;42.688;23.298;2023-03-03T06:24:48;12.27;;;9.07;;
10687;SDS011;5392;42.688;23.298;2023-03-03T06:27:15;16.23;;;10.18;;
10687;SDS011;5392;42.688;23.298;2023-03-03T06:29:41;14.32;;;9.75;;
10687;SDS011;5392;42.688;23.298;2023-03-03T06:32:08;12.45;;;9.80;;
10687;SDS011;5392;42.688;23.298;2023-03-03T06:34:36;12.95;;;9.05;;
10687;SDS011;5392;42.688;23.298;2023-03-03T06:37:02;10.65;;;8.27;;
10687;SDS011;5392;42.688;23.298;2023-03-03T06:39:29;12.18;;;8.88;;
10687;SDS011;5392;42.688;23.298;2023-03-03T06:41:56;11.63;;;8.93;;
10687;SDS011;5392;42.688;23.298;2023-03-03T06:44:22;13.38;;;9.68;;
10687;SDS011;5392;42.688;23.298;2023-03-03T06:46:49;10.35;;;7.78;;
10687;SDS011;5392;42.688;23.298;2023-03-03T06:49:16;12.38;;;8.27;;
10687;SDS011;5392;42.688;23.298;2023-03-03T06:51:43;9.02;;;8.05;;
10687;SDS011;5392;42.688;23.298;2023-03-03T06:56:40;7.63;;;6.88;;
10687;SDS011;5392;42.688;23.298;2023-03-03T06:59:15;12.38;;;8.02;;
10687;SDS011;5392;42.688;23.298;2023-03-03T07:01:46;7.35;;;6.63;;
10687;SDS011;5392;42.688;23.298;2023-03-03T07:06:54;11.13;;;8.15;;
10687;SDS011;5392;42.688;23.298;2023-03-03T07:09:23;10.35;;;7.20;;
10687;SDS011;5392;42.688;23.298;2023-03-03T07:11:52;10.18;;;8.13;;
10687;SDS011;5392;42.688;23.298;2023-03-03T07:14:27;11.52;;;7.93;;
10687;SDS011;5392;42.688;23.298;2023-03-03T07:16:55;8.95;;;6.70;;
10687;SDS011;5392;42.688;23.298;2023-03-03T07:19:32;8.40;;;6.75;;
10687;SDS011;5392;42.688;23.298;2023-03-03T07:22:07;7.97;;;7.15;;
10687;SDS011;5392;42.688;23.298;2023-03-03T07:24:39;9.38;;;7.53;;
10687;SDS011;5392;42.688;23.298;2023-03-03T07:29:37;8.85;;;7.38;;
10687;SDS011;5392;42.688;23.298;2023-03-03T07:34:43;9.63;;;7.78;;
10687;SDS011;5392;42.688;23.298;2023-03-03T07:37:15;8.73;;;7.90;;
10687;SDS011;5392;42.688;23.298;2023-03-03T07:39:47;7.95;;;7.22;;
10687;SDS011;5392;42.688;23.298;2023-03-03T07:42:25;8.35;;;7.55;;
10687;SDS011;5392;42.688;23.298;2023-03-03T07:48:15;8.05;;;7.10;;
10687;SDS011;5392;42.688;23.298;2023-03-03T07:50:49;7.88;;;6.93;;
10687;SDS011;5392;42.688;23.298;2023-03-03T07:53:26;7.93;;;7.15;;
10687;SDS011;5392;42.688;23.298;2023-03-03T07:55:54;8.25;;;7.35;;
10687;SDS011;5392;42.688;23.298;2023-03-03T07:58:34;9.25;;;7.85;;
10687;SDS011;5392;42.688;23.298;2023-03-03T08:03:54;8.18;;;7.18;;
10687;SDS011;5392;42.688;23.298;2023-03-03T08:08:56;8.73;;;7.82;;
10687;SDS011;5392;42.688;23.298;2023-03-03T08:11:27;10.45;;;7.57;;
10687;SDS011;5392;42.688;23.298;2023-03-03T08:13:54;11.68;;;8.48;;
10687;SDS011;5392;42.688;23.298;2023-03-03T08:16:29;8.63;;;7.72;;
10687;SDS011;5392;42.688;23.298;2023-03-03T08:19:03;7.57;;;6.68;;
10687;SDS011;5392;42.688;23.298;2023-03-03T08:21:31;8.18;;;7.07;;
10687;SDS011;5392;42.688;23.298;2023-03-03T08:24:00;9.15;;;8.25;;
10687;SDS011;5392;42.688;23.298;2023-03-03T08:26:27;12.35;;;8.98;;
10687;SDS011;5392;42.688;23.298;2023-03-03T08:28:54;10.35;;;8.60;;
10687;SDS011;5392;42.688;23.298;2023-03-03T08:31:21;9.80;;;8.80;;
10687;SDS011;5392;42.688;23.298;2023-03-03T08:34:06;10.80;;;8.43;;
10687;SDS011;5392;42.688;23.298;2023-03-03T08:36:32;10.38;;;8.75;;
10687;SDS011;5392;42.688;23.298;2023-03-03T08:39:00;10.98;;;8.90;;
10687;SDS011;5392;42.688;23.298;2023-03-03T08:41:27;8.15;;;6.85;;
10687;SDS011;5392;42.688;23.298;2023-03-03T08:43:54;9.38;;;8.10;;
10687;SDS011;5392;42.688;23.298;2023-03-03T08:46:21;9.55;;;7.68;;
10687;SDS011;5392;42.688;23.298;2023-03-03T08:48:48;9.60;;;7.30;;
10687;SDS011;5392;42.688;23.298;2023-03-03T08:51:15;11.38;;;7.40;;
10687;SDS011;5392;42.688;23.298;2023-03-03T08:53:41;8.27;;;7.43;;
10687;SDS011;5392;42.688;23.298;2023-03-03T08:56:08;10.10;;;7.97;;
10687;SDS011;5392;42.688;23.298;2023-03-03T08:58:35;9.02;;;8.13;;
10687;SDS011;5392;42.688;23.298;2023-03-03T09:01:02;10.85;;;8.13;;
10687;SDS011;5392;42.688;23.298;2023-03-03T09:03:30;10.75;;;8.63;;
10687;SDS011;5392;42.688;23.298;2023-03-03T09:05:57;9.15;;;7.57;;
10687;SDS011;5392;42.688;23.298;2023-03-03T09:08:24;10.40;;;7.82;;
10687;SDS011;5392;42.688;23.298;2023-03-03T09:10:50;11.77;;;8.52;;
10687;SDS011;5392;42.688;23.298;2023-03-03T09:13:17;11.40;;;9.52;;
10687;SDS011;5392;42.688;23.298;2023-03-03T09:15:45;15.15;;;10.23;;
10687;SDS011;5392;42.688;23.298;2023-03-03T09:18:14;12.82;;;8.95;;
10687;SDS011;5392;42.688;23.298;2023-03-03T09:20:45;10.40;;;8.27;;
10687;SDS011;5392;42.688;23.298;2023-03-03T09:31:42;11.32;;;7.70;;
10687;SDS011;5392;42.688;23.298;2023-03-03T09:34:13;16.60;;;12.20;;
10687;SDS011;5392;42.688;23.298;2023-03-03T09:36:53;10.40;;;8.65;;
10687;SDS011;5392;42.688;23.298;2023-03-03T09:39:23;9.18;;;7.13;;
10687;SDS011;5392;42.688;23.298;2023-03-03T09:47:19;8.95;;;6.93;;
10687;SDS011;5392;42.688;23.298;2023-03-03T10:00:54;7.57;;;6.38;;
10687;SDS011;5392;42.688;23.298;2023-03-03T10:03:40;5.88;;;5.28;;
10687;SDS011;5392;42.688;23.298;2023-03-03T10:11:48;7.22;;;6.20;;
10687;SDS011;5392;42.688;23.298;2023-03-03T10:20:31;8.52;;;6.93;;
10687;SDS011;5392;42.688;23.298;2023-03-03T10:23:20;7.95;;;6.47;;
10687;SDS011;5392;42.688;23.298;2023-03-03T10:37:02;7.43;;;6.72;;
10687;SDS011;5392;42.688;23.298;2023-03-03T10:39:45;6.80;;;6.18;;
10687;SDS011;5392;42.688;23.298;2023-03-03T10:42:16;11.05;;;7.45;;
10687;SDS011;5392;42.688;23.298;2023-03-03T10:47:57;12.20;;;8.40;;
10687;SDS011;5392;42.688;23.298;2023-03-03T11:07:30;9.07;;;8.23;;
10687;SDS011;5392;42.688;23.298;2023-03-03T11:13:20;13.50;;;11.68;;
10687;SDS011;5392;42.688;23.298;2023-03-03T11:24:34;12.15;;;10.38;;
10687;SDS011;5392;42.688;23.298;2023-03-03T11:30:17;15.88;;;13.65;;
10687;SDS011;5392;42.688;23.298;2023-03-03T11:35:35;21.58;;;19.00;;
10687;SDS011;5392;42.688;23.298;2023-03-03T11:43:24;15.40;;;12.90;;
10687;SDS011;5392;42.688;23.298;2023-03-03T11:46:49;17.27;;;13.48;;
10687;SDS011;5392;42.688;23.298;2023-03-03T11:54:31;17.23;;;14.10;;
10687;SDS011;5392;42.688;23.298;2023-03-03T12:03:28;17.70;;;13.82;;
10687;SDS011;5392;42.688;23.298;2023-03-03T12:14:24;12.27;;;11.05;;
10687;SDS011;5392;42.688;23.298;2023-03-03T12:17:10;12.32;;;11.07;;
10687;SDS011;5392;42.688;23.298;2023-03-03T12:28:40;9.70;;;8.48;;
10687;SDS011;5392;42.688;23.298;2023-03-03T12:49:09;8.70;;;7.90;;
10687;SDS011;5392;42.688;23.298;2023-03-03T12:51:47;11.05;;;9.02;;
10687;SDS011;5392;42.688;23.298;2023-03-03T12:57:44;9.95;;;8.48;;
10687;SDS011;5392;42.688;23.298;2023-03-03T13:00:26;6.78;;;5.93;;
10687;SDS011;5392;42.688;23.298;2023-03-03T13:03:03;6.20;;;5.22;;
10687;SDS011;5392;42.688;23.298;2023-03-03T13:11:11;7.82;;;7.13;;
10687;SDS011;5392;42.688;23.298;2023-03-03T13:16:38;7.10;;;6.40;;
10687;SDS011;5392;42.688;23.298;2023-03-03T13:21:49;5.88;;;5.38;;
10687;SDS011;5392;42.688;23.298;2023-03-03T13:27:06;10.15;;;7.40;;
10687;SDS011;5392;42.688;23.298;2023-03-03T13:29:41;7.13;;;6.50;;
10687;SDS011;5392;42.688;23.298;2023-03-03T13:32:30;7.93;;;7.10;;
10687;SDS011;5392;42.688;23.298;2023-03-03T13:37:59;5.95;;;5.45;;
10687;SDS011;5392;42.688;23.298;2023-03-03T13:43:26;5.32;;;4.88;;
10687;SDS011;5392;42.688;23.298;2023-03-03T13:52:07;8.13;;;7.32;;
10687;SDS011;5392;42.688;23.298;2023-03-03T14:06:46;5.03;;;4.63;;
10687;SDS011;5392;42.688;23.298;2023-03-03T14:11:47;5.40;;;5.00;;
10687;SDS011;5392;42.688;23.298;2023-03-03T14:17:14;3.80;;;3.60;;
10687;SDS011;5392;42.688;23.298;2023-03-03T14:19:51;2.97;;;2.88;;
10687;SDS011;5392;42.688;23.298;2023-03-03T14:22:45;2.50;;;2.40;;
10687;SDS011;5392;42.688;23.298;2023-03-03T14:25:18;3.45;;;3.25;;
10687;SDS011;5392;42.688;23.298;2023-03-03T14:35:24;2.80;;;2.60;;
10687;SDS011;5392;42.688;23.298;2023-03-03T14:38:00;2.75;;;2.65;;
10687;SDS011;5392;42.688;23.298;2023-03-03T14:40:48;2.17;;;2.08;;
10687;SDS011;5392;42.688;23.298;2023-03-03T14:43:35;3.22;;;2.90;;
10687;SDS011;5392;42.688;23.298;2023-03-03T14:49:04;3.30;;;3.05;;
10687;SDS011;5392;42.688;23.298;2023-03-03T14:51:45;3.60;;;3.40;;
10687;SDS011;5392;42.688;23.298;2023-03-03T14:54:15;4.40;;;4.10;;
10687;SDS011;5392;42.688;23.298;2023-03-03T14:56:55;5.50;;;5.10;;
10687;SDS011;5392;42.688;23.298;2023-03-03T14:59:25;4.65;;;4.30;;
10687;SDS011;5392;42.688;23.298;2023-03-03T15:02:35;4.82;;;4.53;;
10687;SDS011;5392;42.688;23.298;2023-03-03T15:04:42;3.67;;;3.50;;
10687;SDS011;5392;42.688;23.298;2023-03-03T15:07:22;3.38;;;3.10;;
10687;SDS011;5392;42.688;23.298;2023-03-03T15:09:58;4.40;;;4.10;;
10687;SDS011;5392;42.688;23.298;2023-03-03T15:17:38;4.82;;;3.53;;
10687;SDS011;5392;42.688;23.298;2023-03-03T15:23:10;4.63;;;4.32;;
10687;SDS011;5392;42.688;23.298;2023-03-03T15:42:30;4.05;;;3.75;;
10687;SDS011;5392;42.688;23.298;2023-03-03T15:56:44;4.32;;;4.13;;
10687;SDS011;5392;42.688;23.298;2023-03-03T16:02:14;4.90;;;4.60;;
10687;SDS011;5392;42.688;23.298;2023-03-03T16:04:46;3.97;;;3.78;;
10687;SDS011;5392;42.688;23.298;2023-03-03T16:10:16;5.57;;;5.18;;
10687;SDS011;5392;42.688;23.298;2023-03-03T16:23:46;6.13;;;5.65;;
10687;SDS011;5392;42.688;23.298;2023-03-03T16:26:35;5.35;;;5.00;;
10687;SDS011;5392;42.688;23.298;2023-03-03T16:29:27;5.47;;;5.07;;
10687;SDS011;5392;42.688;23.298;2023-03-03T16:34:46;5.45;;;5.05;;
10687;SDS011;5392;42.688;23.298;2023-03-03T16:37:59;5.53;;;5.22;;
10687;SDS011;5392;42.688;23.298;2023-03-03T16:46:05;9.65;;;8.82;;
10687;SDS011;5392;42.688;23.298;2023-03-03T16:53:49;16.30;;;13.10;;
10687;SDS011;5392;42.688;23.298;2023-03-03T16:56:45;16.25;;;14.55;;
10687;SDS011;5392;42.688;23.298;2023-03-03T17:02:46;15.55;;;13.60;;
10687;SDS011;5392;42.688;23.298;2023-03-03T17:05:00;15.88;;;13.77;;
10687;SDS011;5392;42.688;23.298;2023-03-03T17:27:13;18.25;;;15.75;;
10687;SDS011;5392;42.688;23.298;2023-03-03T17:32:32;19.60;;;16.98;;
10687;SDS011;5392;42.688;23.298;2023-03-03T17:35:13;21.52;;;16.98;;
10687;SDS011;5392;42.688;23.298;2023-03-03T17:43:25;25.25;;;17.95;;
10687;SDS011;5392;42.688;23.298;2023-03-03T17:46:01;20.45;;;15.82;;
10687;SDS011;5392;42.688;23.298;2023-03-03T17:56:25;19.50;;;14.98;;
10687;SDS011;5392;42.688;23.298;2023-03-03T18:01:53;17.33;;;13.63;;
10687;SDS011;5392;42.688;23.298;2023-03-03T18:18:49;23.50;;;16.40;;
10687;SDS011;5392;42.688;23.298;2023-03-03T18:24:27;23.20;;;16.20;;
10687;SDS011;5392;42.688;23.298;2023-03-03T18:32:57;15.25;;;13.38;;
10687;SDS011;5392;42.688;23.298;2023-03-03T18:43:40;34.80;;;27.17;;
10687;SDS011;5392;42.688;23.298;2023-03-03T18:47:00;39.22;;;33.00;;
10687;SDS011;5392;42.688;23.298;2023-03-03T18:49:05;56.40;;;47.05;;
10687;SDS011;5392;42.688;23.298;2023-03-03T19:04:53;62.75;;;53.05;;
10687;SDS011;5392;42.688;23.298;2023-03-03T19:20:35;50.72;;;42.15;;
10687;SDS011;5392;42.688;23.298;2023-03-03T19:23:05;40.50;;;36.17;;
10687;SDS011;5392;42.688;23.298;2023-03-03T19:25:37;31.20;;;27.23;;
10687;SDS011;5392;42.688;23.298;2023-03-03T19:33:29;17.27;;;14.55;;
10687;SDS011;5392;42.688;23.298;2023-03-03T19:36:27;14.52;;;12.27;;
10687;SDS011;5392;42.688;23.298;2023-03-03T19:58:28;12.48;;;11.18;;
10687;SDS011;5392;42.688;23.298;2023-03-03T20:09:01;6.43;;;5.82;;
10687;SDS011;5392;42.688;23.298;2023-03-03T20:11:36;6.75;;;6.10;;
10687;SDS011;5392;42.688;23.298;2023-03-03T20:16:57;7.97;;;6.68;;
10687;SDS011;5392;42.688;23.298;2023-03-03T20:22:39;5.25;;;4.82;;
10687;SDS011;5392;42.688;23.298;2023-03-03T20:27:54;3.92;;;3.72;;
10687;SDS011;5392;42.688;23.298;2023-03-03T20:33:42;4.60;;;3.90;;
10687;SDS011;5392;42.688;23.298;2023-03-03T20:39:42;3.63;;;3.42;;
10687;SDS011;5392;42.688;23.298;2023-03-03T20:45:12;3.97;;;3.78;;
10687;SDS011;5392;42.688;23.298;2023-03-03T20:50:49;4.85;;;3.80;;
10687;SDS011;5392;42.688;23.298;2023-03-03T21:04:39;5.25;;;4.85;;
10687;SDS011;5392;42.688;23.298;2023-03-03T21:07:06;5.97;;;5.38;;
10687;SDS011;5392;42.688;23.298;2023-03-03T21:09:33;6.07;;;5.57;;
10687;SDS011;5392;42.688;23.298;2023-03-03T21:12:09;5.40;;;5.03;;
10687;SDS011;5392;42.688;23.298;2023-03-03T21:17:28;6.63;;;6.13;;
10687;SDS011;5392;42.688;23.298;2023-03-03T21:22:47;6.70;;;6.20;;
10687;SDS011;5392;42.688;23.298;2023-03-03T21:31:02;9.25;;;7.72;;
10687;SDS011;5392;42.688;23.298;2023-03-03T21:36:04;11.30;;;9.60;;
10687;SDS011;5392;42.688;23.298;2023-03-03T21:38:35;17.20;;;15.40;;
10687;SDS011;5392;42.688;23.298;2023-03-03T21:41:03;22.42;;;20.00;;
10687;SDS011;5392;42.688;23.298;2023-03-03T21:43:35;23.27;;;20.85;;
10687;SDS011;5392;42.688;23.298;2023-03-03T21:46:03;27.25;;;24.15;;
10687;SDS011;5392;42.688;23.298;2023-03-03T21:48:30;28.42;;;20.30;;
10687;SDS011;5392;42.688;23.298;2023-03-03T21:50:58;23.67;;;20.00;;
10687;SDS011;5392;42.688;23.298;2023-03-03T21:53:24;21.77;;;17.00;;
10687;SDS011;5392;42.688;23.298;2023-03-03T21:55:52;21.67;;;14.90;;
10687;SDS011;5392;42.688;23.298;2023-03-03T21:58:19;18.42;;;12.85;;
10687;SDS011;5392;42.688;23.298;2023-03-03T22:00:46;14.10;;;10.23;;
10687;SDS011;5392;42.688;23.298;2023-03-03T22:03:13;13.35;;;10.27;;
10687;SDS011;5392;42.688;23.298;2023-03-03T22:05:40;16.35;;;11.75;;
10687;SDS011;5392;42.688;23.298;2023-03-03T22:08:07;12.95;;;9.48;;
10687;SDS011;5392;42.688;23.298;2023-03-03T22:10:34;12.43;;;10.00;;
10687;SDS011;5392;42.688;23.298;2023-03-03T22:13:00;13.95;;;9.80;;
10687;SDS011;5392;42.688;23.298;2023-03-03T22:15:27;9.43;;;7.80;;
10687;SDS011;5392;42.688;23.298;2023-03-03T22:17:59;14.50;;;9.10;;
10687;SDS011;5392;42.688;23.298;2023-03-03T22:20:26;10.90;;;9.10;;
10687;SDS011;5392;42.688;23.298;2023-03-03T22:22:52;14.82;;;10.13;;
10687;SDS011;5392;42.688;23.298;2023-03-03T22:25:19;12.23;;;9.68;;
10687;SDS011;5392;42.688;23.298;2023-03-03T22:27:45;12.82;;;11.43;;
10687;SDS011;5392;42.688;23.298;2023-03-03T22:30:12;16.65;;;11.88;;
10687;SDS011;5392;42.688;23.298;2023-03-03T22:32:39;15.23;;;11.32;;
10687;SDS011;5392;42.688;23.298;2023-03-03T22:35:06;14.68;;;10.88;;
10687;SDS011;5392;42.688;23.298;2023-03-03T22:37:33;12.68;;;11.05;;
10687;SDS011;5392;42.688;23.298;2023-03-03T22:39:59;14.63;;;11.02;;
10687;SDS011;5392;42.688;23.298;2023-03-03T22:42:26;15.68;;;11.38;;
10687;SDS011;5392;42.688;23.298;2023-03-03T22:44:53;15.43;;;11.57;;
10687;SDS011;5392;42.688;23.298;2023-03-03T22:47:20;15.93;;;12.13;;
10687;SDS011;5392;42.688;23.298;2023-03-03T22:49:46;17.05;;;12.13;;
10687;SDS011;5392;42.688;23.298;2023-03-03T22:52:13;15.13;;;10.95;;
10687;SDS011;5392;42.688;23.298;2023-03-03T22:54:39;17.40;;;12.05;;
10687;SDS011;5392;42.688;23.298;2023-03-03T22:57:06;14.82;;;11.02;;
10687;SDS011;5392;42.688;23.298;2023-03-03T22:59:33;17.45;;;12.18;;
10687;SDS011;5392;42.688;23.298;2023-03-03T23:01:59;15.38;;;12.10;;
10687;SDS011;5392;42.688;23.298;2023-03-03T23:04:26;16.08;;;12.35;;